Keumyang Family — DSNO8 — position and weather

sailwx.info

Track history (hours):
 
Tides and Currents Weather Stations Pressure Air Temp Water Temp Dewpoint Dewpoint Depression Visibility Wind Speed Wind Dir Waves Ship Positions

Keumyang Family

Last reported at 2014-Dec-20 22:30 UTC. Time now 2014-Dec-20 22:58 UTC.
Position N 38°59' E 117°45'.

Length 95 m; draft 4 m.

Type: Cargo ship. MMSI: 441416000.

Date/timePositionNaut miles runAvg speedWind from/ knotsBaromVisibWave heightAir tempDewpointWater temp
2014-Dec-20 22:30N 38°59' E 117°45'0 0.0
2014-Dec-20 21:30N 38°59' E 117°45'0 0.0
2014-Dec-20 20:24N 38°59' E 117°45'0 0.0
2014-Dec-20 19:24N 38°59' E 117°45'0 0.0
2014-Dec-20 18:30N 38°59' E 117°45'0 0.0
2014-Dec-20 17:30N 38°59' E 117°45'0 0.0
2014-Dec-20 16:30N 38°59' E 117°45'0 0.0
2014-Dec-20 15:30N 38°59' E 117°45'0 0.0
2014-Dec-20 14:32N 38°59' E 117°45'0 0.0
2014-Dec-20 13:31N 38°59' E 117°45'0 0.0
2014-Dec-20 12:30N 38°59' E 117°45'0 0.0
2014-Dec-20 11:30N 38°59' E 117°45'0 0.0
2014-Dec-20 10:18N 38°59' E 117°45'0 0.0
2014-Dec-20 09:30N 38°59' E 117°45'0 0.0
2014-Dec-20 08:24N 38°59' E 117°45'0 0.0
2014-Dec-20 07:33N 38°59' E 117°45'6 5.7
2014-Dec-20 06:33N 38°58' E 117°52'8 7.9
2014-Dec-20 05:30N 38°58' E 118°03'1 0.8
2014-Dec-20 04:27N 38°58' E 118°04'1 0.4
2014-Dec-20 02:30N 38°58' E 118°05'134 7.4
2014-Dec-19 08:28N 38°02' E 120°40'10 6.8
2014-Dec-19 07:04N 38°00' E 120°52'32 6.8
2014-Dec-19 02:25N 37°46' E 121°28'8 9.1
2014-Dec-19 01:33N 37°38' E 121°28'5 5.0
2014-Dec-19 00:27N 37°34' E 121°23'0 0.0
2014-Dec-18 23:33N 37°34' E 121°23'0 0.0
2014-Dec-18 22:33N 37°34' E 121°23'0 0.0
2014-Dec-18 21:33N 37°34' E 121°23'0 0.0
2014-Dec-18 20:33N 37°34' E 121°23'0 0.0
2014-Dec-18 19:33N 37°34' E 121°23'0 0.0
2014-Dec-18 18:33N 37°34' E 121°23'0 0.0
2014-Dec-18 17:33N 37°34' E 121°23'0 0.0
2014-Dec-18 16:33N 37°34' E 121°23'0 0.0
2014-Dec-18 15:33N 37°34' E 121°23'0 0.0
2014-Dec-18 14:33N 37°34' E 121°23'0 0.0
2014-Dec-18 13:33N 37°34' E 121°23'0 0.0
2014-Dec-18 12:21N 37°34' E 121°23'0 0.0
2014-Dec-18 11:33N 37°34' E 121°23'0 0.0
2014-Dec-18 10:33N 37°34' E 121°23'0 0.0
2014-Dec-18 09:33N 37°34' E 121°23'0 0.0
2014-Dec-18 08:33N 37°34' E 121°23'0 0.0
2014-Dec-18 07:27N 37°34' E 121°23'0 0.0
2014-Dec-18 06:33N 37°34' E 121°23'0 0.0
2014-Dec-18 05:33N 37°34' E 121°23'0 0.0
2014-Dec-18 04:33N 37°34' E 121°23'0 0.0
2014-Dec-18 03:24N 37°34' E 121°23'0 0.0
2014-Dec-18 02:33N 37°34' E 121°23'3 2.7
2014-Dec-18 01:33N 37°35' E 121°26'5 5.4
2014-Dec-18 00:33N 37°39' E 121°30'1 1.3
2014-Dec-17 23:34N 37°40' E 121°31'8 7.3
2014-Dec-17 22:29N 37°41' E 121°41'12 3.6
2014-Dec-17 19:08N 37°38' E 121°56'5 8.6
2014-Dec-17 18:33N 37°38' E 122°02'9 8.6
2014-Dec-17 17:33N 37°37' E 122°13'9 8.6
2014-Dec-17 16:33N 37°36' E 122°24'8 8.3
2014-Dec-17 15:33N 37°35' E 122°34'8 7.7
2014-Dec-17 14:33N 37°27' E 122°38'1 0.1
2014-Dec-16 14:24N 37°26' E 122°38'0 0.0
2014-Dec-15 23:03N 37°26' E 122°38'1 0.1
2014-Dec-15 17:30N 37°27' E 122°38'7 7.6
2014-Dec-15 16:30N 37°34' E 122°41'  
Track history (hours):
 
Tides and Currents Weather Stations Pressure Air Temp Water Temp Dewpoint Dewpoint Depression Visibility Wind Speed Wind Dir Waves Ship Positions

Keumyang Family

Last reported at 2014-Dec-20 22:30 UTC. Time now 2014-Dec-20 22:58 UTC.
Position N 38°59' E 117°45'.

Length 95 m; draft 4 m.

Type: Cargo ship. MMSI: 441416000.

Date/timePositionNaut miles runAvg speedWind from/ knotsBaromVisibWave heightAir tempDewpointWater temp
2014-Dec-20 22:30N 38°59' E 117°45'0 0.0
2014-Dec-20 21:30N 38°59' E 117°45'0 0.0
2014-Dec-20 20:24N 38°59' E 117°45'0 0.0
2014-Dec-20 19:24N 38°59' E 117°45'0 0.0
2014-Dec-20 18:30N 38°59' E 117°45'0 0.0
2014-Dec-20 17:30N 38°59' E 117°45'0 0.0
2014-Dec-20 16:30N 38°59' E 117°45'0 0.0
2014-Dec-20 15:30N 38°59' E 117°45'0 0.0
2014-Dec-20 14:32N 38°59' E 117°45'0 0.0
2014-Dec-20 13:31N 38°59' E 117°45'0 0.0
2014-Dec-20 12:30N 38°59' E 117°45'0 0.0
2014-Dec-20 11:30N 38°59' E 117°45'0 0.0
2014-Dec-20 10:18N 38°59' E 117°45'0 0.0
2014-Dec-20 09:30N 38°59' E 117°45'0 0.0
2014-Dec-20 08:24N 38°59' E 117°45'0 0.0
2014-Dec-20 07:33N 38°59' E 117°45'6 5.7
2014-Dec-20 06:33N 38°58' E 117°52'8 7.9
2014-Dec-20 05:30N 38°58' E 118°03'1 0.8
2014-Dec-20 04:27N 38°58' E 118°04'1 0.4
2014-Dec-20 02:30N 38°58' E 118°05'134 7.4
2014-Dec-19 08:28N 38°02' E 120°40'10 6.8
2014-Dec-19 07:04N 38°00' E 120°52'32 6.8
2014-Dec-19 02:25N 37°46' E 121°28'8 9.1
2014-Dec-19 01:33N 37°38' E 121°28'5 5.0
2014-Dec-19 00:27N 37°34' E 121°23'0 0.0
2014-Dec-18 23:33N 37°34' E 121°23'0 0.0
2014-Dec-18 22:33N 37°34' E 121°23'0 0.0
2014-Dec-18 21:33N 37°34' E 121°23'0 0.0
2014-Dec-18 20:33N 37°34' E 121°23'0 0.0
2014-Dec-18 19:33N 37°34' E 121°23'0 0.0
2014-Dec-18 18:33N 37°34' E 121°23'0 0.0
2014-Dec-18 17:33N 37°34' E 121°23'0 0.0
2014-Dec-18 16:33N 37°34' E 121°23'0 0.0
2014-Dec-18 15:33N 37°34' E 121°23'0 0.0
2014-Dec-18 14:33N 37°34' E 121°23'0 0.0
2014-Dec-18 13:33N 37°34' E 121°23'0 0.0
2014-Dec-18 12:21N 37°34' E 121°23'0 0.0
2014-Dec-18 11:33N 37°34' E 121°23'0 0.0
2014-Dec-18 10:33N 37°34' E 121°23'0 0.0
2014-Dec-18 09:33N 37°34' E 121°23'0 0.0
2014-Dec-18 08:33N 37°34' E 121°23'0 0.0
2014-Dec-18 07:27N 37°34' E 121°23'0 0.0
2014-Dec-18 06:33N 37°34' E 121°23'0 0.0
2014-Dec-18 05:33N 37°34' E 121°23'0 0.0
2014-Dec-18 04:33N 37°34' E 121°23'0 0.0
2014-Dec-18 03:24N 37°34' E 121°23'0 0.0
2014-Dec-18 02:33N 37°34' E 121°23'3 2.7
2014-Dec-18 01:33N 37°35' E 121°26'5 5.4
2014-Dec-18 00:33N 37°39' E 121°30'1 1.3
2014-Dec-17 23:34N 37°40' E 121°31'8 7.3
2014-Dec-17 22:29N 37°41' E 121°41'12 3.6
2014-Dec-17 19:08N 37°38' E 121°56'5 8.6
2014-Dec-17 18:33N 37°38' E 122°02'9 8.6
2014-Dec-17 17:33N 37°37' E 122°13'9 8.6
2014-Dec-17 16:33N 37°36' E 122°24'8 8.3
2014-Dec-17 15:33N 37°35' E 122°34'8 7.7
2014-Dec-17 14:33N 37°27' E 122°38'1 0.1
2014-Dec-16 14:24N 37°26' E 122°38'0 0.0
2014-Dec-15 23:03N 37°26' E 122°38'1 0.1
2014-Dec-15 17:30N 37°27' E 122°38'7 7.6
2014-Dec-15 16:30N 37°34' E 122°41'  

Dump ship's entire track history